createdAt,value
2018-02-27T00:00:47.197Z,-5.56
2018-02-27T00:01:47.200Z,-5.57
2018-02-27T00:02:47.201Z,-5.60
2018-02-27T00:03:47.206Z,-5.60
2018-02-27T00:04:47.198Z,-5.60
2018-02-27T00:05:47.192Z,-5.61
2018-02-27T00:06:47.200Z,-5.63
2018-02-27T00:07:47.199Z,-5.65
2018-02-27T00:08:47.187Z,-5.70
2018-02-27T00:09:47.190Z,-5.71
2018-02-27T00:10:47.187Z,-5.75
2018-02-27T00:11:47.204Z,-5.77
2018-02-27T00:12:47.181Z,-5.78
2018-02-27T00:13:47.181Z,-5.79
2018-02-27T00:14:47.187Z,-5.81
2018-02-27T00:15:47.179Z,-5.83
2018-02-27T00:16:47.181Z,-5.83
2018-02-27T00:17:47.192Z,-5.83
2018-02-27T00:18:47.178Z,-5.86
2018-02-27T00:19:47.178Z,-5.89
2018-02-27T00:20:47.182Z,-5.90
2018-02-27T00:21:47.179Z,-5.92
2018-02-27T00:22:47.173Z,-5.93
2018-02-27T00:23:47.173Z,-5.92
2018-02-27T00:24:47.181Z,-5.90
2018-02-27T00:25:47.169Z,-5.92
2018-02-27T00:26:47.171Z,-5.92
2018-02-27T00:27:47.175Z,-5.90
2018-02-27T00:28:47.164Z,-5.95
2018-02-27T00:29:47.170Z,-5.96
2018-02-27T00:30:47.172Z,-5.99
2018-02-27T00:31:47.161Z,-5.99
2018-02-27T00:32:47.270Z,-6.04
2018-02-27T00:33:47.176Z,-6.06
2018-02-27T00:34:47.162Z,-6.10
2018-02-27T00:35:47.274Z,-6.13
2018-02-27T00:36:47.160Z,-6.13
2018-02-27T00:37:47.151Z,-6.14
2018-02-27T00:38:47.173Z,-6.13
2018-02-27T00:39:47.179Z,-6.13
2018-02-27T00:40:47.156Z,-6.14
2018-02-27T00:41:47.158Z,-6.16
2018-02-27T00:42:47.146Z,-6.16
2018-02-27T00:43:47.156Z,-6.18
2018-02-27T00:44:47.150Z,-6.17
2018-02-27T00:45:47.148Z,-6.17
2018-02-27T00:46:47.288Z,-6.16
2018-02-27T00:47:47.147Z,-6.13
2018-02-27T00:48:47.248Z,-6.13
2018-02-27T00:49:47.138Z,-6.13
2018-02-27T00:50:47.162Z,-6.13
2018-02-27T00:51:47.151Z,-6.13
2018-02-27T00:52:47.137Z,-6.11
2018-02-27T00:53:47.136Z,-6.11
2018-02-27T00:54:47.135Z,-6.14
2018-02-27T00:55:47.141Z,-6.16
2018-02-27T00:56:47.140Z,-6.17
2018-02-27T00:57:47.134Z,-6.17
2018-02-27T00:58:47.125Z,-6.21
2018-02-27T00:59:47.130Z,-6.21
2018-02-27T01:00:47.132Z,-6.24
2018-02-27T01:01:47.125Z,-6.27
2018-02-27T01:02:47.130Z,-6.29
2018-02-27T01:03:47.125Z,-6.32
2018-02-27T01:04:47.123Z,-6.35
2018-02-27T01:05:47.123Z,-6.40
2018-02-27T01:06:47.121Z,-6.45
2018-02-27T01:07:47.116Z,-6.47
2018-02-27T01:08:47.126Z,-6.49
2018-02-27T01:09:47.121Z,-6.50
2018-02-27T01:10:47.113Z,-6.53
2018-02-27T01:11:47.114Z,-6.56
2018-02-27T01:12:47.114Z,-6.59
2018-02-27T01:13:47.119Z,-6.61
2018-02-27T01:14:47.125Z,-6.67
2018-02-27T01:15:47.115Z,-6.67
2018-02-27T01:16:47.113Z,-6.62
2018-02-27T01:17:47.111Z,-6.59
2018-02-27T01:18:47.117Z,-6.55
2018-02-27T01:19:47.105Z,-6.52
2018-02-27T01:20:47.102Z,-6.49
2018-02-27T01:21:47.100Z,-6.50
2018-02-27T01:22:47.116Z,-6.50
2018-02-27T01:23:47.099Z,-6.52
2018-02-27T01:24:47.101Z,-6.53
2018-02-27T01:25:47.099Z,-6.56
2018-02-27T01:26:47.116Z,-6.59
2018-02-27T01:27:47.095Z,-6.56
2018-02-27T01:28:47.101Z,-6.55
2018-02-27T01:29:47.097Z,-6.56
2018-02-27T01:30:47.097Z,-6.56
2018-02-27T01:31:47.093Z,-6.56
2018-02-27T01:32:47.089Z,-6.55
2018-02-27T01:33:47.083Z,-6.53
2018-02-27T01:34:47.088Z,-6.53
2018-02-27T01:35:47.091Z,-6.53
2018-02-27T01:36:47.159Z,-6.55
2018-02-27T01:37:47.083Z,-6.55
2018-02-27T01:38:47.085Z,-6.53
2018-02-27T01:39:47.094Z,-6.52
2018-02-27T01:40:47.094Z,-6.52
2018-02-27T01:41:47.080Z,-6.52
2018-02-27T01:42:47.080Z,-6.55
2018-02-27T01:43:47.071Z,-6.55
2018-02-27T01:44:47.077Z,-6.56
2018-02-27T01:45:47.071Z,-6.56
2018-02-27T01:46:47.112Z,-6.56
2018-02-27T01:47:47.073Z,-6.59
2018-02-27T01:48:47.121Z,-6.59
2018-02-27T01:49:47.061Z,-6.61
2018-02-27T01:50:47.140Z,-6.62
2018-02-27T01:51:47.100Z,-6.64
2018-02-27T01:52:47.153Z,-6.65
2018-02-27T01:53:47.063Z,-6.64
2018-02-27T01:54:47.187Z,-6.67
2018-02-27T01:55:47.070Z,-6.69
2018-02-27T01:56:47.074Z,-6.71
2018-02-27T01:57:47.071Z,-6.71
2018-02-27T01:58:47.060Z,-6.71
2018-02-27T01:59:47.064Z,-6.67
2018-02-27T02:00:47.062Z,-6.67
2018-02-27T02:01:47.087Z,-6.65
2018-02-27T02:02:47.047Z,-6.62
2018-02-27T02:03:47.047Z,-6.62
2018-02-27T02:04:47.055Z,-6.64
2018-02-27T02:05:47.047Z,-6.62
2018-02-27T02:06:47.046Z,-6.62
2018-02-27T02:07:47.054Z,-6.62
2018-02-27T02:08:47.040Z,-6.62
2018-02-27T02:09:47.036Z,-6.65
2018-02-27T02:10:47.041Z,-6.67
2018-02-27T02:11:47.042Z,-6.68
2018-02-27T02:12:47.041Z,-6.69
2018-02-27T02:13:48.576Z,-6.69
2018-02-27T02:14:47.039Z,-6.69
2018-02-27T02:15:47.032Z,-6.68
2018-02-27T02:16:47.037Z,-6.68
2018-02-27T02:17:47.032Z,-6.71
2018-02-27T02:18:47.042Z,-6.69
2018-02-27T02:19:47.143Z,-6.68
2018-02-27T02:20:47.028Z,-6.69
2018-02-27T02:21:47.032Z,-6.69
2018-02-27T02:22:47.024Z,-6.68
2018-02-27T02:23:47.023Z,-6.68
2018-02-27T02:24:47.026Z,-6.68
2018-02-27T02:25:47.023Z,-6.69
2018-02-27T02:26:47.020Z,-6.69
2018-02-27T02:27:47.065Z,-6.72
2018-02-27T02:28:47.030Z,-6.75
2018-02-27T02:29:47.016Z,-6.77
2018-02-27T02:30:47.013Z,-6.80
2018-02-27T02:31:47.021Z,-6.82
2018-02-27T02:32:47.013Z,-6.85
2018-02-27T02:33:47.022Z,-6.87
2018-02-27T02:34:48.041Z,-6.90
2018-02-27T02:35:47.004Z,-6.93
2018-02-27T02:36:47.031Z,-6.95
2018-02-27T02:37:47.012Z,-6.97
2018-02-27T02:38:47.018Z,-6.98
2018-02-27T02:39:47.011Z,-7.00
2018-02-27T02:40:47.016Z,-7.03
2018-02-27T02:41:47.000Z,-7.04
2018-02-27T02:42:47.003Z,-7.06
2018-02-27T02:43:46.997Z,-7.06
2018-02-27T02:44:46.995Z,-7.07
2018-02-27T02:45:47.009Z,-7.08
2018-02-27T02:46:46.995Z,-7.11
2018-02-27T02:47:46.994Z,-7.15
2018-02-27T02:48:46.990Z,-7.18
2018-02-27T02:49:47.009Z,-7.19
2018-02-27T02:50:46.992Z,-7.22
2018-02-27T02:51:46.983Z,-7.24
2018-02-27T02:52:46.987Z,-7.22
2018-02-27T02:53:46.984Z,-7.26
2018-02-27T02:54:46.981Z,-7.25
2018-02-27T02:55:46.976Z,-7.25
2018-02-27T02:56:46.983Z,-7.28
2018-02-27T02:57:46.976Z,-7.26
2018-02-27T02:58:46.975Z,-7.24
2018-02-27T02:59:46.990Z,-7.24
2018-02-27T03:00:46.978Z,-7.25
2018-02-27T03:01:47.064Z,-7.25
2018-02-27T03:02:46.968Z,-7.26
2018-02-27T03:03:46.974Z,-7.25
2018-02-27T03:04:46.982Z,-7.25
2018-02-27T03:05:46.963Z,-7.26
2018-02-27T03:06:47.002Z,-7.26
2018-02-27T03:07:46.962Z,-7.26
2018-02-27T03:08:46.965Z,-7.28
2018-02-27T03:09:46.977Z,-7.29
2018-02-27T03:10:46.963Z,-7.31
2018-02-27T03:11:46.956Z,-7.29
2018-02-27T03:12:46.958Z,-7.26
2018-02-27T03:13:46.957Z,-7.25
2018-02-27T03:14:46.952Z,-7.26
2018-02-27T03:15:46.951Z,-7.24
2018-02-27T03:16:46.983Z,-7.25
2018-02-27T03:17:46.941Z,-7.24
2018-02-27T03:18:46.944Z,-7.24
2018-02-27T03:19:46.946Z,-7.25
2018-02-27T03:20:46.939Z,-7.28
2018-02-27T03:21:46.938Z,-7.31
2018-02-27T03:22:46.941Z,-7.35
2018-02-27T03:23:46.936Z,-7.36
2018-02-27T03:24:47.010Z,-7.36
2018-02-27T03:25:46.935Z,-7.36
2018-02-27T03:26:46.933Z,-7.39
2018-02-27T03:27:46.928Z,-7.40
2018-02-27T03:28:47.003Z,-7.40
2018-02-27T03:29:46.937Z,-7.42
2018-02-27T03:30:46.924Z,-7.43
2018-02-27T03:31:46.930Z,-7.42
2018-02-27T03:32:46.922Z,-7.43
2018-02-27T03:33:46.925Z,-7.46
2018-02-27T03:34:46.923Z,-7.45
2018-02-27T03:35:46.915Z,-7.46
2018-02-27T03:36:46.918Z,-7.47
2018-02-27T03:37:46.915Z,-7.49
2018-02-27T03:38:46.923Z,-7.50
2018-02-27T03:39:46.907Z,-7.53
2018-02-27T03:40:46.918Z,-7.53
2018-02-27T03:41:46.909Z,-7.54
2018-02-27T03:42:47.951Z,-7.54
2018-02-27T03:43:46.933Z,-7.54
2018-02-27T03:44:46.915Z,-7.54
2018-02-27T03:45:46.902Z,-7.55
2018-02-27T03:46:46.902Z,-7.55
2018-02-27T03:47:46.913Z,-7.58
2018-02-27T03:48:46.901Z,-7.60
2018-02-27T03:49:46.900Z,-7.63
2018-02-27T03:50:46.907Z,-7.63
2018-02-27T03:51:46.896Z,-7.64
2018-02-27T03:52:46.891Z,-7.68
2018-02-27T03:53:46.905Z,-7.68
2018-02-27T03:54:46.897Z,-7.70
2018-02-27T03:55:46.895Z,-7.74
2018-02-27T03:56:46.893Z,-7.76
2018-02-27T03:57:46.882Z,-7.79
2018-02-27T03:58:46.892Z,-7.79
2018-02-27T03:59:46.881Z,-7.81
2018-02-27T04:00:46.880Z,-7.82
2018-02-27T04:01:46.878Z,-7.85
2018-02-27T04:02:46.875Z,-7.85
2018-02-27T04:03:46.888Z,-7.85
2018-02-27T04:04:46.874Z,-7.84
2018-02-27T04:05:46.869Z,-7.82
2018-02-27T04:06:46.869Z,-7.81
2018-02-27T04:07:46.866Z,-7.81
2018-02-27T04:08:46.970Z,-7.76
2018-02-27T04:09:46.864Z,-7.74
2018-02-27T04:10:46.891Z,-7.72
2018-02-27T04:11:46.859Z,-7.68
2018-02-27T04:12:46.875Z,-7.70
2018-02-27T04:13:46.857Z,-7.68
2018-02-27T04:14:46.856Z,-7.68
2018-02-27T04:15:46.946Z,-7.67
2018-02-27T04:16:46.868Z,-7.64
2018-02-27T04:17:46.958Z,-7.65
2018-02-27T04:18:46.852Z,-7.64
2018-02-27T04:19:46.874Z,-7.64
2018-02-27T04:20:46.859Z,-7.64
2018-02-27T04:21:46.885Z,-7.67
2018-02-27T04:22:46.841Z,-7.68
2018-02-27T04:23:46.894Z,-7.68
2018-02-27T04:24:46.844Z,-7.72
2018-02-27T04:25:46.913Z,-7.72
2018-02-27T04:26:46.838Z,-7.70
2018-02-27T04:27:46.923Z,-7.68
2018-02-27T04:28:46.837Z,-7.70
2018-02-27T04:29:46.832Z,-7.68
2018-02-27T04:30:46.830Z,-7.68
2018-02-27T04:31:46.854Z,-7.70
2018-02-27T04:32:46.825Z,-7.72
2018-02-27T04:33:46.840Z,-7.74
2018-02-27T04:34:46.825Z,-7.75
2018-02-27T04:35:46.821Z,-7.72
2018-02-27T04:36:46.821Z,-7.72
2018-02-27T04:37:46.822Z,-7.74
2018-02-27T04:38:46.815Z,-7.72
2018-02-27T04:39:46.812Z,-7.70
2018-02-27T04:40:46.857Z,-7.68
2018-02-27T04:41:46.828Z,-7.67
2018-02-27T04:42:46.813Z,-7.67
2018-02-27T04:43:46.809Z,-7.67
2018-02-27T04:44:46.809Z,-7.68
2018-02-27T04:45:46.810Z,-7.67
2018-02-27T04:46:46.816Z,-7.65
2018-02-27T04:47:46.797Z,-7.64
2018-02-27T04:48:46.800Z,-7.65
2018-02-27T04:49:46.805Z,-7.67
2018-02-27T04:50:46.795Z,-7.67
2018-02-27T04:51:46.794Z,-7.68
2018-02-27T04:52:47.875Z,-7.68
2018-02-27T04:53:46.787Z,-7.68
2018-02-27T04:54:46.846Z,-7.68
2018-02-27T04:55:46.789Z,-7.68
2018-02-27T04:56:46.782Z,-7.70
2018-02-27T04:57:46.783Z,-7.70
2018-02-27T04:58:46.788Z,-7.70
2018-02-27T04:59:46.777Z,-7.68
2018-02-27T05:00:46.783Z,-7.68
2018-02-27T05:01:46.787Z,-7.67
2018-02-27T05:02:46.820Z,-7.65
2018-02-27T05:03:46.772Z,-7.64
2018-02-27T05:04:46.779Z,-7.65
2018-02-27T05:05:46.777Z,-7.65
2018-02-27T05:06:46.792Z,-7.67
2018-02-27T05:07:46.767Z,-7.68
2018-02-27T05:08:46.775Z,-7.70
2018-02-27T05:09:46.761Z,-7.72
2018-02-27T05:10:46.763Z,-7.74
2018-02-27T05:11:46.773Z,-7.72
2018-02-27T05:12:46.759Z,-7.74
2018-02-27T05:13:46.756Z,-7.75
2018-02-27T05:14:46.768Z,-7.74
2018-02-27T05:15:46.753Z,-7.74
2018-02-27T05:16:46.756Z,-7.74
2018-02-27T05:17:46.754Z,-7.76
2018-02-27T05:18:46.802Z,-7.78
2018-02-27T05:19:46.745Z,-7.81
2018-02-27T05:20:46.815Z,-7.81
2018-02-27T05:21:46.744Z,-7.84
2018-02-27T05:22:46.741Z,-7.84
2018-02-27T05:23:46.773Z,-7.85
2018-02-27T05:24:46.756Z,-7.85
2018-02-27T05:25:46.736Z,-7.88
2018-02-27T05:26:46.775Z,-7.90
2018-02-27T05:27:46.742Z,-7.92
2018-02-27T05:28:46.892Z,-7.92
2018-02-27T05:29:46.758Z,-7.92
2018-02-27T05:30:46.730Z,-7.90
2018-02-27T05:31:46.723Z,-7.88
2018-02-27T05:32:46.733Z,-7.90
2018-02-27T05:33:46.787Z,-7.93
2018-02-27T05:34:46.727Z,-7.95
2018-02-27T05:35:46.731Z,-7.95
2018-02-27T05:36:46.731Z,-7.97
2018-02-27T05:37:46.716Z,-7.97
2018-02-27T05:38:46.722Z,-7.96
2018-02-27T05:39:46.732Z,-7.97
2018-02-27T05:40:46.708Z,-7.96
2018-02-27T05:41:46.747Z,-7.96
2018-02-27T05:42:46.706Z,-7.96
2018-02-27T05:43:46.708Z,-7.97
2018-02-27T05:44:46.703Z,-7.97
2018-02-27T05:45:46.706Z,-8.01
2018-02-27T05:46:46.701Z,-8.01
2018-02-27T05:47:46.801Z,-8.03
2018-02-27T05:48:46.694Z,-8.04
2018-02-27T05:49:46.796Z,-8.07
2018-02-27T05:50:46.696Z,-8.07
2018-02-27T05:51:46.689Z,-8.08
2018-02-27T05:52:46.689Z,-8.08
2018-02-27T05:53:46.686Z,-8.12
2018-02-27T05:54:46.746Z,-8.12
2018-02-27T05:55:46.683Z,-8.12
2018-02-27T05:56:46.688Z,-8.15
2018-02-27T05:57:46.679Z,-8.14
2018-02-27T05:58:46.681Z,-8.15
2018-02-27T05:59:46.681Z,-8.15
2018-02-27T06:00:46.770Z,-8.16
2018-02-27T06:01:46.711Z,-8.15
2018-02-27T06:02:46.780Z,-8.16
2018-02-27T06:03:46.668Z,-8.18
2018-02-27T06:04:46.671Z,-8.19
2018-02-27T06:05:46.670Z,-8.18
2018-02-27T06:06:46.706Z,-8.19
2018-02-27T06:07:46.725Z,-8.22
2018-02-27T06:08:46.720Z,-8.22
2018-02-27T06:09:46.786Z,-8.25
2018-02-27T06:10:46.731Z,-8.24
2018-02-27T06:11:46.655Z,-8.25
2018-02-27T06:12:46.789Z,-8.25
2018-02-27T06:13:46.691Z,-8.25
2018-02-27T06:14:46.665Z,-8.24
2018-02-27T06:15:46.647Z,-8.22
2018-02-27T06:16:46.667Z,-8.22
2018-02-27T06:17:46.691Z,-8.21
2018-02-27T06:18:46.645Z,-8.18
2018-02-27T06:19:46.700Z,-8.15
2018-02-27T06:20:46.694Z,-8.11
2018-02-27T06:21:46.630Z,-8.07
2018-02-27T06:22:46.646Z,-8.01
2018-02-27T06:23:46.724Z,-7.96
2018-02-27T06:24:46.639Z,-7.90
2018-02-27T06:25:46.827Z,-7.86
2018-02-27T06:26:46.630Z,-7.84
2018-02-27T06:27:46.645Z,-7.81
2018-02-27T06:28:46.627Z,-7.78
2018-02-27T06:29:46.665Z,-7.74
2018-02-27T06:30:46.615Z,-7.72
2018-02-27T06:31:46.653Z,-7.70
2018-02-27T06:32:46.625Z,-7.67
2018-02-27T06:33:46.633Z,-7.67
2018-02-27T06:34:47.898Z,-7.67
2018-02-27T06:35:46.606Z,-7.64
2018-02-27T06:36:46.892Z,-7.67
2018-02-27T06:37:46.618Z,-7.67
2018-02-27T06:38:46.795Z,-7.68
2018-02-27T06:39:46.599Z,-7.68
2018-02-27T06:40:47.636Z,-7.72
2018-02-27T06:41:46.600Z,-7.74
2018-02-27T06:42:47.644Z,-7.75
2018-02-27T06:43:46.592Z,-7.75
2018-02-27T06:44:46.656Z,-7.75
2018-02-27T06:45:46.600Z,-7.74
2018-02-27T06:46:46.587Z,-7.74
2018-02-27T06:47:46.587Z,-7.74
2018-02-27T06:48:46.659Z,-7.74
2018-02-27T06:49:46.575Z,-7.74
2018-02-27T06:50:46.676Z,-7.72
2018-02-27T06:51:46.576Z,-7.72
2018-02-27T06:52:46.698Z,-7.68
2018-02-27T06:53:46.575Z,-7.67
2018-02-27T06:54:46.572Z,-7.65
2018-02-27T06:55:46.708Z,-7.63
2018-02-27T06:56:46.580Z,-7.60
2018-02-27T06:57:46.616Z,-7.57
2018-02-27T06:58:46.562Z,-7.54
2018-02-27T06:59:46.632Z,-7.49
2018-02-27T07:00:46.566Z,-7.43
2018-02-27T07:01:46.676Z,-7.39
2018-02-27T07:02:46.561Z,-7.35
2018-02-27T07:03:46.657Z,-7.31
2018-02-27T07:04:46.550Z,-7.28
2018-02-27T07:05:46.677Z,-7.28
2018-02-27T07:06:46.554Z,-7.28
2018-02-27T07:07:47.610Z,-7.24
2018-02-27T07:08:46.546Z,-7.21
2018-02-27T07:09:46.607Z,-7.18
2018-02-27T07:10:46.575Z,-7.13
2018-02-27T07:11:46.617Z,-7.08
2018-02-27T07:12:46.543Z,-7.03
2018-02-27T07:13:46.626Z,-7.00
2018-02-27T07:14:46.531Z,-6.95
2018-02-27T07:15:46.640Z,-6.90
2018-02-27T07:16:46.524Z,-6.86
2018-02-27T07:17:47.674Z,-6.82
2018-02-27T07:18:46.533Z,-6.79
2018-02-27T07:19:46.566Z,-6.74
2018-02-27T07:20:46.516Z,-6.72
2018-02-27T07:21:46.523Z,-6.69
2018-02-27T07:22:47.610Z,-6.67
2018-02-27T07:23:46.519Z,-6.64
2018-02-27T07:24:46.654Z,-6.61
2018-02-27T07:25:46.542Z,-6.55
2018-02-27T07:26:46.618Z,-6.53
2018-02-27T07:27:46.507Z,-6.52
2018-02-27T07:28:47.545Z,-6.50
2018-02-27T07:29:46.506Z,-6.50
2018-02-27T07:30:46.643Z,-6.50
2018-02-27T07:31:46.498Z,-6.49
2018-02-27T07:32:46.550Z,-6.49
2018-02-27T07:33:46.511Z,-6.47
2018-02-27T07:34:46.563Z,-6.45
2018-02-27T07:35:46.492Z,-6.42
2018-02-27T07:36:46.498Z,-6.39
2018-02-27T07:37:46.585Z,-6.35
2018-02-27T07:38:46.479Z,-6.32
2018-02-27T07:39:46.598Z,-6.29
2018-02-27T07:40:46.479Z,-6.28
2018-02-27T07:41:46.610Z,-6.27
2018-02-27T07:42:46.472Z,-6.25
2018-02-27T07:43:46.526Z,-6.22
2018-02-27T07:44:46.473Z,-6.22
2018-02-27T07:45:46.542Z,-6.22
2018-02-27T07:46:46.468Z,-6.18
2018-02-27T07:47:46.557Z,-6.17
2018-02-27T07:48:46.459Z,-6.14
2018-02-27T07:49:46.460Z,-6.13
2018-02-27T07:50:46.457Z,-6.10
2018-02-27T07:51:46.618Z,-6.04
2018-02-27T07:52:46.453Z,-5.99
2018-02-27T07:53:46.586Z,-5.95
2018-02-27T07:54:46.453Z,-5.90
2018-02-27T07:55:46.505Z,-5.86
2018-02-27T07:56:46.439Z,-5.79
2018-02-27T07:57:46.521Z,-5.78
2018-02-27T07:58:46.448Z,-5.72
2018-02-27T07:59:46.531Z,-5.70
2018-02-27T08:00:46.436Z,-5.67
2018-02-27T08:01:46.573Z,-5.60
2018-02-27T08:02:46.436Z,-5.57
2018-02-27T08:03:46.557Z,-5.54
2018-02-27T08:04:46.428Z,-5.51
2018-02-27T08:05:46.570Z,-5.50
2018-02-27T08:06:46.434Z,-5.49
2018-02-27T08:07:46.417Z,-5.50
2018-02-27T08:08:46.495Z,-5.54
2018-02-27T08:09:46.430Z,-5.60
2018-02-27T08:10:46.502Z,-5.65
2018-02-27T08:11:46.417Z,-5.71
2018-02-27T08:12:47.550Z,-5.77
2018-02-27T08:13:46.438Z,-5.78
2018-02-27T08:14:46.531Z,-5.81
2018-02-27T08:15:46.406Z,-5.79
2018-02-27T08:16:46.406Z,-5.78
2018-02-27T08:17:46.436Z,-5.74
2018-02-27T08:18:46.397Z,-5.71
2018-02-27T08:19:47.492Z,-5.63
2018-02-27T08:20:46.395Z,-5.57
2018-02-27T08:21:48.529Z,-5.50
2018-02-27T08:22:46.394Z,-5.42
2018-02-27T08:23:46.489Z,-5.36
2018-02-27T08:24:46.413Z,-5.31
2018-02-27T08:25:46.515Z,-5.24
2018-02-27T08:26:46.458Z,-5.24
2018-02-27T08:27:46.514Z,-5.21
2018-02-27T08:28:46.385Z,-5.22
2018-02-27T08:29:46.561Z,-5.22
2018-02-27T08:30:46.378Z,-5.21
2018-02-27T08:31:46.441Z,-5.20
2018-02-27T08:32:46.379Z,-5.17
2018-02-27T08:33:46.462Z,-5.11
2018-02-27T08:34:46.372Z,-5.05
2018-02-27T08:35:46.464Z,-5.01
2018-02-27T08:36:46.368Z,-4.98
2018-02-27T08:37:46.490Z,-4.96
2018-02-27T08:38:46.373Z,-4.95
2018-02-27T08:39:46.498Z,-4.96
2018-02-27T08:40:46.362Z,-5.02
2018-02-27T08:41:46.541Z,-5.05
2018-02-27T08:42:46.352Z,-5.10
2018-02-27T08:43:46.428Z,-5.13
2018-02-27T08:44:46.347Z,-5.20
2018-02-27T08:45:46.450Z,-5.24
2018-02-27T08:46:46.391Z,-5.29
2018-02-27T08:47:46.459Z,-5.31
2018-02-27T08:48:46.370Z,-5.33
2018-02-27T08:49:47.484Z,-5.36
2018-02-27T08:50:46.347Z,-5.38
2018-02-27T08:51:46.474Z,-5.38
2018-02-27T08:52:46.338Z,-5.42
2018-02-27T08:53:47.415Z,-5.42
2018-02-27T08:54:46.413Z,-5.42
2018-02-27T08:55:46.470Z,-5.42
2018-02-27T08:56:46.320Z,-5.42
2018-02-27T08:57:46.382Z,-5.42
2018-02-27T08:58:46.337Z,-5.39
2018-02-27T08:59:47.417Z,-5.38
2018-02-27T09:00:46.329Z,-5.35
2018-02-27T09:01:46.421Z,-5.35
2018-02-27T09:02:46.324Z,-5.33
2018-02-27T09:03:46.321Z,-5.33
2018-02-27T09:04:46.440Z,-5.31
2018-02-27T09:05:46.310Z,-5.29
2018-02-27T09:06:46.469Z,-5.28
2018-02-27T09:07:46.307Z,-5.24
2018-02-27T09:08:46.460Z,-5.22
2018-02-27T09:09:46.305Z,-5.21
2018-02-27T09:10:46.368Z,-5.18
2018-02-27T09:11:46.310Z,-5.18
2018-02-27T09:12:46.383Z,-5.14
2018-02-27T09:13:46.320Z,-5.14
2018-02-27T09:14:46.472Z,-5.11
2018-02-27T09:15:46.297Z,-5.10
2018-02-27T09:16:46.420Z,-5.09
2018-02-27T09:17:46.297Z,-5.07
2018-02-27T09:18:46.423Z,-5.03
2018-02-27T09:19:46.301Z,-5.02
2018-02-27T09:20:46.432Z,-5.01
2018-02-27T09:21:46.288Z,-4.99
2018-02-27T09:22:46.289Z,-4.98
2018-02-27T09:23:46.349Z,-4.96
2018-02-27T09:24:46.288Z,-4.96
2018-02-27T09:25:46.370Z,-4.95
2018-02-27T09:26:46.288Z,-4.92
2018-02-27T09:27:46.376Z,-4.89
2018-02-27T09:28:46.284Z,-4.87
2018-02-27T09:29:46.374Z,-4.84
2018-02-27T09:30:46.275Z,-4.82
2018-02-27T09:31:46.386Z,-4.78
2018-02-27T09:32:46.280Z,-4.75
2018-02-27T09:33:46.271Z,-4.73
2018-02-27T09:34:46.274Z,-4.67
2018-02-27T09:35:46.313Z,-4.64
2018-02-27T09:36:46.268Z,-4.60
2018-02-27T09:37:46.274Z,-4.54
2018-02-27T09:38:46.353Z,-4.48
2018-02-27T09:39:46.269Z,-4.41
2018-02-27T09:40:46.274Z,-4.35
2018-02-27T09:41:46.267Z,-4.25
2018-02-27T09:42:46.265Z,-4.17
2018-02-27T09:43:46.275Z,-4.12
2018-02-27T09:44:46.296Z,-4.09
2018-02-27T09:45:46.265Z,-4.05
2018-02-27T09:46:46.283Z,-4.00
2018-02-27T09:47:46.264Z,-3.96
2018-02-27T09:48:46.299Z,-3.91
2018-02-27T09:49:46.259Z,-3.85
2018-02-27T09:50:46.257Z,-3.79
2018-02-27T09:51:46.254Z,-3.72
2018-02-27T09:52:47.354Z,-3.66
2018-02-27T09:53:46.251Z,-3.59
2018-02-27T09:54:46.253Z,-3.47
2018-02-27T09:55:46.252Z,-3.36
2018-02-27T09:56:46.269Z,-3.27
2018-02-27T09:57:46.253Z,-3.18
2018-02-27T09:58:46.251Z,-3.15
2018-02-27T09:59:46.249Z,-3.09
2018-02-27T10:00:46.240Z,-3.03
2018-02-27T10:01:46.246Z,-2.97
2018-02-27T10:02:46.251Z,-2.94
2018-02-27T10:03:46.251Z,-2.92
2018-02-27T10:04:46.249Z,-2.88
2018-02-27T10:05:46.242Z,-2.90
2018-02-27T10:06:46.267Z,-2.88
2018-02-27T10:07:46.240Z,-2.88
2018-02-27T10:08:46.251Z,-2.90
2018-02-27T10:09:46.245Z,-2.90
2018-02-27T10:10:46.235Z,-2.88
2018-02-27T10:11:46.345Z,-2.85
2018-02-27T10:12:46.238Z,-2.79
2018-02-27T10:13:46.242Z,-2.73
2018-02-27T10:14:46.246Z,-2.66
2018-02-27T10:15:46.229Z,-2.56
2018-02-27T10:16:46.236Z,-2.46
2018-02-27T10:17:46.243Z,-2.34
2018-02-27T10:18:46.240Z,-2.22
2018-02-27T10:19:46.227Z,-2.14
2018-02-27T10:20:46.248Z,-2.08
2018-02-27T10:21:46.237Z,-2.03
2018-02-27T10:22:46.239Z,-1.97
2018-02-27T10:23:46.248Z,-1.93
2018-02-27T10:24:46.226Z,-1.88
2018-02-27T10:25:46.228Z,-1.88
2018-02-27T10:26:46.231Z,-1.93
2018-02-27T10:27:46.227Z,-1.96
2018-02-27T10:28:46.222Z,-1.97
2018-02-27T10:29:46.224Z,-2.01
2018-02-27T10:30:46.267Z,-2.04
2018-02-27T10:31:46.229Z,-2.01
2018-02-27T10:32:46.221Z,-1.97
2018-02-27T10:33:46.290Z,-1.93
2018-02-27T10:34:46.229Z,-1.90
2018-02-27T10:35:46.226Z,-1.85
2018-02-27T10:36:46.244Z,-1.80
2018-02-27T10:37:46.225Z,-1.76
2018-02-27T10:38:46.233Z,-1.75
2018-02-27T10:39:46.218Z,-1.75
2018-02-27T10:40:46.222Z,-1.76
2018-02-27T10:41:46.214Z,-1.78
2018-02-27T10:42:46.254Z,-1.78
2018-02-27T10:43:46.228Z,-1.75
2018-02-27T10:44:46.213Z,-1.75
2018-02-27T10:45:46.210Z,-1.78
2018-02-27T10:46:46.278Z,-1.78
2018-02-27T10:47:46.227Z,-1.79
2018-02-27T10:48:46.295Z,-1.79
2018-02-27T10:49:46.206Z,-1.76
2018-02-27T10:50:46.307Z,-1.67
2018-02-27T10:51:46.220Z,-1.59
2018-02-27T10:52:46.324Z,-1.54
2018-02-27T10:53:46.206Z,-1.49
2018-02-27T10:54:46.210Z,-1.49
2018-02-27T10:55:46.203Z,-1.43
2018-02-27T10:56:46.197Z,-1.37
2018-02-27T10:57:46.315Z,-1.28
2018-02-27T10:58:46.202Z,-1.23
2018-02-27T10:59:46.267Z,-1.22
2018-02-27T11:00:46.199Z,-1.23
2018-02-27T11:01:46.281Z,-1.26
2018-02-27T11:02:46.212Z,-1.28
2018-02-27T11:03:46.291Z,-1.33
2018-02-27T11:04:46.196Z,-1.36
2018-02-27T11:05:46.322Z,-1.40
2018-02-27T11:06:46.195Z,-1.44
2018-02-27T11:07:46.222Z,-1.46
2018-02-27T11:08:46.261Z,-1.49
2018-02-27T11:09:46.231Z,-1.47
2018-02-27T11:10:46.188Z,-1.47
2018-02-27T11:11:46.252Z,-1.49
2018-02-27T11:12:46.189Z,-1.49
2018-02-27T11:13:46.261Z,-1.49
2018-02-27T11:14:46.196Z,-1.51
2018-02-27T11:15:46.274Z,-1.54
2018-02-27T11:16:46.189Z,-1.54
2018-02-27T11:17:46.301Z,-1.55
2018-02-27T11:18:46.280Z,-1.52
2018-02-27T11:19:46.193Z,-1.49
2018-02-27T11:20:46.304Z,-1.44
2018-02-27T11:21:46.182Z,-1.39
2018-02-27T11:22:46.204Z,-1.36
2018-02-27T11:23:46.187Z,-1.29
2018-02-27T11:24:46.233Z,-1.26
2018-02-27T11:25:46.181Z,-1.25
2018-02-27T11:26:46.245Z,-1.26
2018-02-27T11:27:46.191Z,-1.31
2018-02-27T11:28:46.179Z,-1.34
2018-02-27T11:29:46.263Z,-1.40
2018-02-27T11:30:46.175Z,-1.41
2018-02-27T11:31:46.174Z,-1.43
2018-02-27T11:32:46.172Z,-1.46
2018-02-27T11:33:46.186Z,-1.52
2018-02-27T11:34:46.171Z,-1.58
2018-02-27T11:35:46.176Z,-1.61
2018-02-27T11:36:46.177Z,-1.64
2018-02-27T11:37:46.170Z,-1.65
2018-02-27T11:38:46.174Z,-1.67
2018-02-27T11:39:46.230Z,-1.69
2018-02-27T11:40:46.170Z,-1.72
2018-02-27T11:41:46.167Z,-1.73
2018-02-27T11:42:46.163Z,-1.78
2018-02-27T11:43:46.374Z,-1.78
2018-02-27T11:44:46.162Z,-1.78
2018-02-27T11:45:46.222Z,-1.79
2018-02-27T11:46:46.162Z,-1.76
2018-02-27T11:47:46.162Z,-1.73
2018-02-27T11:48:46.169Z,-1.72
2018-02-27T11:49:46.163Z,-1.70
2018-02-27T11:50:46.216Z,-1.67
2018-02-27T11:51:46.158Z,-1.62
2018-02-27T11:52:46.169Z,-1.55
2018-02-27T11:53:46.156Z,-1.49
2018-02-27T11:54:46.150Z,-1.44
2018-02-27T11:55:46.239Z,-1.40
2018-02-27T11:56:46.156Z,-1.36
2018-02-27T11:57:46.251Z,-1.29
2018-02-27T11:58:46.157Z,-1.28
2018-02-27T11:59:46.151Z,-1.22
2018-02-27T12:00:46.161Z,-1.21
2018-02-27T12:01:46.298Z,-1.21
2018-02-27T12:02:46.146Z,-1.22
2018-02-27T12:03:46.191Z,-1.25
2018-02-27T12:04:46.149Z,-1.26
2018-02-27T12:05:46.212Z,-1.25
2018-02-27T12:06:46.142Z,-1.19
2018-02-27T12:07:46.226Z,-1.16
2018-02-27T12:08:46.151Z,-1.10
2018-02-27T12:09:46.254Z,-1.07
2018-02-27T12:10:46.156Z,-1.03
2018-02-27T12:11:46.162Z,-0.98
2018-02-27T12:12:46.139Z,-0.92
2018-02-27T12:13:46.200Z,-0.86
2018-02-27T12:14:46.173Z,-0.84
2018-02-27T12:15:46.137Z,-0.85
2018-02-27T12:16:46.139Z,-0.92
2018-02-27T12:17:46.141Z,-0.97
2018-02-27T12:18:46.137Z,-1.00
2018-02-27T12:19:46.132Z,-0.98
2018-02-27T12:20:46.197Z,-0.92
2018-02-27T12:21:46.129Z,-0.85
2018-02-27T12:22:46.216Z,-0.79
2018-02-27T12:23:46.144Z,-0.73
2018-02-27T12:24:46.230Z,-0.66
2018-02-27T12:25:46.129Z,-0.67
2018-02-27T12:26:46.242Z,-0.64
2018-02-27T12:27:46.131Z,-0.57
2018-02-27T12:28:46.149Z,-0.50
2018-02-27T12:29:46.130Z,-0.46
2018-02-27T12:30:46.130Z,-0.43
2018-02-27T12:31:46.125Z,-0.39
2018-02-27T12:32:46.121Z,-0.38
2018-02-27T12:33:46.142Z,-0.29
2018-02-27T12:34:46.702Z,-0.21
2018-02-27T12:35:46.128Z,-0.14
2018-02-27T12:36:46.211Z,-0.10
2018-02-27T12:37:46.119Z,-0.10
2018-02-27T12:38:46.144Z,-0.13
2018-02-27T12:39:46.127Z,-0.14
2018-02-27T12:40:46.218Z,-0.17
2018-02-27T12:41:46.123Z,-0.20
2018-02-27T12:42:46.156Z,-0.22
2018-02-27T12:43:46.118Z,-0.21
2018-02-27T12:44:46.123Z,-0.21
2018-02-27T12:45:46.121Z,-0.21
2018-02-27T12:46:46.122Z,-0.21
2018-02-27T12:47:46.114Z,-0.25
2018-02-27T12:48:46.153Z,-0.28
2018-02-27T12:49:46.242Z,-0.31
2018-02-27T12:50:46.120Z,-0.34
2018-02-27T12:51:46.127Z,-0.35
2018-02-27T12:52:46.229Z,-0.38